Time;durP1;ratioP1;P1;durP2;ratioP2;P2;SDS_P1;SDS_P2;PMS_P1;PMS_P2;Temp;Humidity;BMP_temperature;BMP_pressure;BME280_temperature;BME280_humidity;BME280_pressure;Samples;Min_cycle;Max_cycle;Signal;HPM_P1;HPM_P2
2023/07/25 00:00:07;;;;;;;15.55;7.47;;;25.80;99.90;;;;;;4959569;28;20059;-77
2023/07/25 00:02:35;;;;;;;14.50;6.80;;;25.80;99.90;;;;;;4966826;28;20058;-76
2023/07/25 00:05:05;;;;;;;15.02;7.65;;;25.80;99.90;;;;;;4957495;28;20051;-77
2023/07/25 00:07:51;;;;;;;13.40;7.00;;;25.80;99.90;;;;;;4957574;29;20095;-79
2023/07/25 00:10:19;;;;;;;14.07;6.70;;;25.80;99.90;;;;;;4957624;28;20461;-77
2023/07/25 00:12:46;;;;;;;15.05;7.35;;;25.60;99.90;;;;;;4957204;29;20384;-76
2023/07/25 00:15:14;;;;;;;15.02;7.10;;;25.50;99.90;;;;;;4957724;28;20047;-77
2023/07/25 00:17:41;;;;;;;12.80;6.88;;;25.60;99.90;;;;;;4940870;29;20055;-77
2023/07/25 00:20:09;;;;;;;13.82;6.97;;;25.90;99.90;;;;;;4947579;28;20059;-78
2023/07/25 00:22:36;;;;;;;19.98;7.90;;;25.90;99.90;;;;;;4939321;29;20051;-77
2023/07/25 00:25:04;;;;;;;13.93;6.80;;;26.00;99.90;;;;;;4932537;29;20057;-78
2023/07/25 00:27:31;;;;;;;13.60;7.82;;;25.90;99.90;;;;;;4936966;29;20047;-75
2023/07/25 00:29:59;;;;;;;15.75;8.20;;;25.90;99.90;;;;;;4955466;28;20055;-75
2023/07/25 00:32:26;;;;;;;27.55;9.07;;;25.80;99.90;;;;;;4921953;28;20048;-80
2023/07/25 00:34:54;;;;;;;20.75;9.77;;;25.80;99.90;;;;;;4955748;28;20047;-76
2023/07/25 00:37:22;;;;;;;21.10;8.48;;;25.90;99.90;;;;;;4922489;29;20589;-77
2023/07/25 00:39:53;;;;;;;22.25;10.57;;;25.80;99.90;;;;;;4955796;29;20074;-77
2023/07/25 00:42:20;;;;;;;22.42;10.32;;;25.80;99.90;;;;;;4956687;29;20459;-76
2023/07/25 00:44:47;;;;;;;22.67;10.95;;;25.80;99.90;;;;;;4939548;28;20067;-78
2023/07/25 00:47:17;;;;;;;23.73;11.20;;;25.80;99.90;;;;;;4949977;29;20458;-77
2023/07/25 00:49:45;;;;;;;20.88;9.73;;;25.80;99.90;;;;;;4920451;29;20087;-77
2023/07/25 00:52:13;;;;;;;21.25;9.63;;;25.70;99.90;;;;;;4936697;29;20210;-78
2023/07/25 00:54:48;;;;;;;23.80;12.07;;;25.60;99.90;;;;;;4920198;29;20392;-77
2023/07/25 00:57:17;;;;;;;25.13;11.82;;;25.60;99.90;;;;;;4925434;29;20431;-77
2023/07/25 00:59:45;;;;;;;27.55;12.07;;;25.30;99.90;;;;;;4935640;29;20051;-80
2023/07/25 01:02:14;;;;;;;29.13;12.93;;;25.40;99.90;;;;;;4937333;29;20052;-77
2023/07/25 01:04:43;;;;;;;21.83;10.13;;;25.40;99.90;;;;;;4937060;29;20166;-77
2023/07/25 01:07:14;;;;;;;22.92;11.05;;;25.50;99.90;;;;;;4935692;29;20047;-78
2023/07/25 01:09:45;;;;;;;22.35;11.70;;;25.50;99.90;;;;;;4936848;29;20052;-78
2023/07/25 01:12:13;;;;;;;26.25;11.43;;;25.50;99.90;;;;;;4939559;29;20358;-77
2023/07/25 01:14:41;;;;;;;18.95;11.43;;;25.30;99.90;;;;;;4940672;29;20056;-80
2023/07/25 01:17:11;;;;;;;28.70;13.85;;;25.30;99.90;;;;;;4939574;29;20051;-78
2023/07/25 01:19:41;;;;;;;29.40;14.43;;;25.10;99.90;;;;;;4939476;29;20047;-80
2023/07/25 01:22:09;;;;;;;29.83;13.45;;;25.10;99.90;;;;;;4940358;29;20612;-81
2023/07/25 01:24:42;;;;;;;29.73;12.00;;;25.30;99.90;;;;;;4925667;29;20055;-86
2023/07/25 01:27:09;;;;;;;21.00;9.93;;;25.20;99.90;;;;;;4943356;29;20119;-84
2023/07/25 01:29:36;;;;;;;18.73;9.85;;;25.30;99.90;;;;;;4949479;29;20051;-86
2023/07/25 01:32:09;;;;;;;16.25;9.88;;;25.20;99.90;;;;;;4951546;29;20507;-84
2023/07/25 01:34:37;;;;;;;20.25;10.05;;;25.20;99.90;;;;;;4949946;29;20044;-87
2023/07/25 01:37:05;;;;;;;19.27;9.70;;;24.90;99.90;;;;;;4955804;29;20051;-86
2023/07/25 01:39:33;;;;;;;22.85;10.18;;;24.80;99.90;;;;;;4931732;29;20058;-90
2023/07/25 01:42:01;;;;;;;20.50;9.75;;;24.80;99.90;;;;;;4952268;29;20059;-77
2023/07/25 01:44:29;;;;;;;17.77;9.60;;;24.70;99.90;;;;;;4939144;29;20051;-78
2023/07/25 01:46:59;;;;;;;18.77;10.27;;;24.80;99.90;;;;;;4938738;29;20130;-77
2023/07/25 01:49:28;;;;;;;23.55;10.43;;;24.80;99.90;;;;;;4944874;29;20167;-77
2023/07/25 01:51:55;;;;;;;20.15;9.75;;;24.60;99.90;;;;;;4956199;28;20122;-78
2023/07/25 01:54:22;;;;;;;17.27;9.27;;;24.60;99.90;;;;;;4934519;29;20051;-78
2023/07/25 01:56:50;;;;;;;16.92;9.77;;;24.60;99.90;;;;;;4954300;28;20134;-78
2023/07/25 01:59:18;;;;;;;17.88;9.95;;;24.70;99.90;;;;;;4957130;29;20082;-78
2023/07/25 02:01:45;;;;;;;22.48;10.43;;;24.60;99.90;;;;;;4938772;29;20047;-79
2023/07/25 02:04:12;;;;;;;22.25;10.70;;;24.60;99.90;;;;;;4956009;28;20051;-77
2023/07/25 02:06:39;;;;;;;22.60;11.00;;;24.60;99.90;;;;;;4922118;29;20055;-77
2023/07/25 02:09:07;;;;;;;23.73;11.95;;;24.70;99.90;;;;;;4936810;29;20078;-77
2023/07/25 02:11:34;;;;;;;27.88;11.15;;;24.70;99.90;;;;;;4953145;29;20062;-77
2023/07/25 02:14:02;;;;;;;25.00;12.45;;;24.70;99.90;;;;;;4959302;28;20107;-78
2023/07/25 02:16:29;;;;;;;24.92;12.95;;;24.40;99.90;;;;;;4963217;28;20053;-78
2023/07/25 02:18:57;;;;;;;25.35;13.88;;;24.30;99.90;;;;;;4947648;29;20059;-79
2023/07/25 02:21:24;;;;;;;30.95;14.80;;;24.30;99.90;;;;;;4925342;29;20414;-78
2023/07/25 02:23:51;;;;;;;30.85;15.38;;;24.20;99.90;;;;;;4958689;28;20439;-79
2023/07/25 02:26:19;;;;;;;31.02;15.18;;;24.20;99.90;;;;;;4926329;29;20051;-78
2023/07/25 02:28:46;;;;;;;29.48;15.02;;;24.20;99.90;;;;;;4960239;28;20058;-78
2023/07/25 02:31:13;;;;;;;23.17;13.57;;;24.30;99.90;;;;;;4945310;29;20059;-80
2023/07/25 02:33:41;;;;;;;28.75;13.77;;;24.30;99.90;;;;;;4926519;28;20062;-78
2023/07/25 02:36:08;;;;;;;28.55;13.25;;;24.30;99.90;;;;;;4959690;28;20102;-77
2023/07/25 02:38:36;;;;;;;23.85;11.40;;;24.40;99.90;;;;;;4931559;28;20051;-78
2023/07/25 02:41:03;;;;;;;23.27;11.65;;;24.40;99.90;;;;;;4968113;28;20122;-82
2023/07/25 02:43:31;;;;;;;23.10;10.57;;;24.20;99.90;;;;;;4958077;28;20043;-78
2023/07/25 02:45:58;;;;;;;22.73;10.32;;;24.20;99.90;;;;;;4937450;29;20503;-77
2023/07/25 02:48:25;;;;;;;21.48;9.02;;;24.00;99.90;;;;;;4920145;28;20139;-77
2023/07/25 02:50:52;;;;;;;18.08;8.65;;;24.00;99.90;;;;;;4958718;29;20143;-78
2023/07/25 02:53:20;;;;;;;18.55;8.93;;;24.10;99.90;;;;;;4944092;28;20469;-77
2023/07/25 02:56:04;;;;;;;15.43;8.35;;;24.10;99.90;;;;;;4958668;28;20050;-77
2023/07/25 02:58:32;;;;;;;16.42;7.30;;;23.90;99.90;;;;;;4932810;28;20139;-76
2023/07/25 03:01:00;;;;;;;20.65;8.60;;;24.00;99.90;;;;;;4961115;29;20388;-80
2023/07/25 03:03:27;;;;;;;16.83;8.25;;;24.00;99.90;;;;;;4934265;28;20058;-84
2023/07/25 03:05:54;;;;;;;13.18;7.47;;;23.80;99.90;;;;;;4971395;28;20518;-78
2023/07/25 03:08:22;;;;;;;16.65;7.60;;;23.80;99.90;;;;;;4961216;28;20407;-77
2023/07/25 03:10:49;;;;;;;17.50;8.57;;;23.90;99.90;;;;;;4951141;29;20058;-83
2023/07/25 03:13:16;;;;;;;14.98;7.90;;;24.10;99.90;;;;;;4960191;29;20411;-77
2023/07/25 03:15:44;;;;;;;17.98;8.18;;;23.90;99.90;;;;;;4939746;29;20143;-78
2023/07/25 03:18:11;;;;;;;15.15;7.50;;;23.80;99.90;;;;;;4957351;28;20047;-78
2023/07/25 03:20:56;;;;;;;14.88;7.90;;;23.80;99.90;;;;;;4925152;29;20047;-77
2023/07/25 03:23:23;;;;;;;15.02;6.88;;;23.70;99.90;;;;;;4947995;28;20047;-81
2023/07/25 03:25:50;;;;;;;16.50;7.28;;;23.70;99.90;;;;;;4921375;28;20138;-78
2023/07/25 03:28:18;;;;;;;17.77;8.90;;;23.70;99.90;;;;;;4957428;28;20102;-76
2023/07/25 03:30:45;;;;;;;15.15;8.02;;;23.70;99.90;;;;;;4956476;28;20127;-77
2023/07/25 03:33:12;;;;;;;18.20;9.00;;;23.70;99.90;;;;;;4957066;29;20051;-76
2023/07/25 03:35:41;;;;;;;20.10;9.85;;;23.70;99.90;;;;;;4956585;28;20055;-77
2023/07/25 03:38:08;;;;;;;27.15;11.68;;;23.60;99.90;;;;;;4957123;29;20074;-78
2023/07/25 03:40:35;;;;;;;23.77;10.25;;;23.50;99.90;;;;;;4939400;28;20134;-78
2023/07/25 03:43:03;;;;;;;19.23;9.63;;;23.70;99.90;;;;;;4957077;29;20078;-78
2023/07/25 03:45:30;;;;;;;15.50;9.10;;;23.70;99.90;;;;;;4956378;28;20063;-78
2023/07/25 03:47:57;;;;;;;18.02;9.48;;;23.50;99.90;;;;;;4936414;29;20063;-76
2023/07/25 03:50:25;;;;;;;18.58;8.35;;;23.60;99.90;;;;;;4953426;28;20051;-77
2023/07/25 03:52:52;;;;;;;19.63;8.93;;;23.60;99.90;;;;;;4956691;28;20081;-77
2023/07/25 03:55:19;;;;;;;18.48;8.82;;;23.60;99.90;;;;;;4956517;28;20119;-75
2023/07/25 03:57:47;;;;;;;17.13;8.20;;;23.60;99.90;;;;;;4956256;28;20070;-76
2023/07/25 04:00:15;;;;;;;18.48;9.00;;;23.60;99.90;;;;;;4929551;28;20046;-77
2023/07/25 04:02:42;;;;;;;19.08;8.20;;;23.60;99.90;;;;;;4966493;28;20058;-77
2023/07/25 04:05:09;;;;;;;21.83;8.48;;;23.60;99.90;;;;;;4956426;29;20043;-77
2023/07/25 04:07:37;;;;;;;17.70;7.57;;;23.50;99.90;;;;;;4939838;29;20055;-78
2023/07/25 04:10:05;;;;;;;19.88;8.82;;;23.50;99.90;;;;;;4956763;28;20039;-77
2023/07/25 04:12:32;;;;;;;15.60;8.02;;;23.80;99.90;;;;;;4931257;29;20107;-77
2023/07/25 04:14:59;;;;;;;16.10;8.32;;;23.80;99.90;;;;;;4956619;28;20047;-78
2023/07/25 04:17:27;;;;;;;14.52;8.05;;;23.80;99.90;;;;;;4957576;29;20107;-80
2023/07/25 04:19:54;;;;;;;16.30;8.25;;;23.80;99.90;;;;;;4956685;29;20103;-78
2023/07/25 04:22:21;;;;;;;15.68;7.38;;;23.80;99.90;;;;;;4928747;28;20059;-78
2023/07/25 04:24:49;;;;;;;21.20;8.75;;;23.90;99.90;;;;;;4958552;29;20051;-79
2023/07/25 04:27:18;;;;;;;16.73;7.75;;;23.90;99.90;;;;;;4959237;28;20391;-78
2023/07/25 04:29:45;;;;;;;16.73;7.72;;;23.90;99.90;;;;;;4956989;28;20384;-79
2023/07/25 04:32:12;;;;;;;15.07;7.32;;;24.00;99.90;;;;;;4957495;28;20047;-78
2023/07/25 04:34:40;;;;;;;14.63;6.95;;;24.00;99.90;;;;;;4941823;29;20515;-77
2023/07/25 04:37:07;;;;;;;18.58;6.90;;;24.00;99.90;;;;;;4960842;28;20419;-77
2023/07/25 04:39:34;;;;;;;13.15;7.43;;;23.90;99.90;;;;;;4965623;28;20043;-78
2023/07/25 04:42:02;;;;;;;16.92;7.97;;;24.00;99.90;;;;;;4955510;28;20051;-78
2023/07/25 04:44:29;;;;;;;12.93;7.75;;;24.00;99.90;;;;;;4955652;28;20402;-79
2023/07/25 04:46:56;;;;;;;15.82;7.85;;;24.00;99.90;;;;;;4923505;28;20491;-79
2023/07/25 04:49:25;;;;;;;17.00;8.00;;;24.20;99.90;;;;;;4956325;29;20418;-79
2023/07/25 04:51:52;;;;;;;17.17;8.05;;;24.30;99.90;;;;;;4956078;29;20052;-79
2023/07/25 04:54:19;;;;;;;17.48;7.90;;;24.30;99.90;;;;;;4956562;28;20545;-78
2023/07/25 04:56:46;;;;;;;22.80;8.77;;;24.20;99.90;;;;;;4958026;28;20138;-79
2023/07/25 04:59:14;;;;;;;18.65;8.93;;;24.10;99.90;;;;;;4956951;28;20414;-76
2023/07/25 05:01:41;;;;;;;22.20;9.30;;;24.30;99.90;;;;;;4955363;28;20447;-78
2023/07/25 05:04:08;;;;;;;16.92;8.20;;;24.20;99.90;;;;;;4956339;28;20126;-77
2023/07/25 05:06:35;;;;;;;21.45;8.45;;;24.10;99.90;;;;;;4943224;28;20066;-78
2023/07/25 05:09:03;;;;;;;24.60;9.25;;;24.30;99.90;;;;;;4964740;28;20055;-76
2023/07/25 05:11:30;;;;;;;30.27;18.38;;;24.40;99.90;;;;;;4956212;29;20054;-76
2023/07/25 05:13:58;;;;;;;37.72;21.92;;;24.50;99.90;;;;;;4955569;29;20481;-76
2023/07/25 05:16:26;;;;;;;24.10;11.65;;;24.30;99.90;;;;;;4930495;28;20046;-78
2023/07/25 05:18:59;;;;;;;40.72;23.70;;;24.40;99.90;;;;;;4956755;28;20069;-76
2023/07/25 05:21:26;;;;;;;51.13;31.40;;;24.50;99.90;;;;;;4961071;28;20054;-78
2023/07/25 05:23:55;;;;;;;138.45;93.65;;;24.70;99.90;;;;;;4931338;29;20503;-79
2023/07/25 05:26:22;;;;;;;50.13;30.10;;;24.90;99.90;;;;;;4947871;29;20055;-77
2023/07/25 05:28:50;;;;;;;37.63;24.67;;;24.80;99.90;;;;;;4957808;28;20047;-76
2023/07/25 05:31:17;;;;;;;23.20;12.68;;;25.00;99.90;;;;;;4958431;28;20054;-77
2023/07/25 05:33:44;;;;;;;20.05;9.27;;;25.00;99.90;;;;;;4961908;28;20461;-78
2023/07/25 05:36:12;;;;;;;17.83;8.85;;;24.90;99.90;;;;;;4962377;28;20075;-78
2023/07/25 05:38:39;;;;;;;14.10;7.88;;;24.80;99.90;;;;;;4956705;28;20414;-76
2023/07/25 05:41:09;;;;;;;16.20;7.82;;;24.80;99.90;;;;;;4937550;29;20731;-76
2023/07/25 05:43:39;;;;;;;15.80;8.30;;;24.80;99.90;;;;;;4923782;29;20048;-75
2023/07/25 05:46:07;;;;;;;18.70;8.50;;;24.80;99.90;;;;;;4923649;29;20063;-77
2023/07/25 05:48:35;;;;;;;19.58;8.60;;;24.80;99.90;;;;;;4966288;28;20057;-78
2023/07/25 05:51:02;;;;;;;16.85;8.15;;;24.80;99.90;;;;;;4922565;29;20423;-78
2023/07/25 05:53:29;;;;;;;28.83;15.10;;;25.00;99.90;;;;;;4933549;28;20051;-78
2023/07/25 05:55:57;;;;;;;38.03;22.70;;;25.00;99.90;;;;;;4938557;29;20047;-76
2023/07/25 05:58:24;;;;;;;31.75;18.77;;;25.10;99.90;;;;;;4940361;28;20090;-76
2023/07/25 06:00:53;;;;;;;24.83;11.60;;;25.30;99.90;;;;;;4959177;28;20074;-79
2023/07/25 06:03:21;;;;;;;32.22;14.02;;;25.10;99.90;;;;;;4941578;29;20109;-79
2023/07/25 06:05:49;;;;;;;18.38;9.38;;;25.30;99.90;;;;;;4933512;29;20111;-79
2023/07/25 06:08:18;;;;;;;19.58;9.55;;;25.20;99.90;;;;;;4929468;29;20055;-79
2023/07/25 06:10:45;;;;;;;26.02;9.77;;;25.20;99.90;;;;;;4941709;29;20054;-78
2023/07/25 06:13:16;;;;;;;21.50;10.65;;;25.20;99.90;;;;;;4962610;28;20050;-83
2023/07/25 06:15:46;;;;;;;19.40;10.02;;;25.10;99.90;;;;;;4965958;28;20051;-79
2023/07/25 06:18:15;;;;;;;25.23;9.95;;;25.30;99.90;;;;;;4962332;28;20039;-82
2023/07/25 06:20:43;;;;;;;;;;;25.40;99.90;;;;;;4959574;28;20087;-80
2023/07/25 06:23:11;;;;;;;18.05;8.77;;;25.60;99.90;;;;;;4946610;29;19926;-83
2023/07/25 06:25:39;;;;;;;22.13;9.02;;;25.70;99.90;;;;;;4942611;29;20254;-83
2023/07/25 06:28:06;;;;;;;23.45;8.15;;;25.80;99.90;;;;;;4940353;29;20051;-80
2023/07/25 06:30:33;;;;;;;17.30;7.95;;;25.80;99.90;;;;;;4937560;29;20051;-81
2023/07/25 06:33:01;;;;;;;18.90;8.43;;;25.80;99.90;;;;;;4953142;28;20114;-79
2023/07/25 06:35:28;;;;;;;15.20;7.35;;;25.90;99.90;;;;;;4928534;29;20039;-80
2023/07/25 06:37:56;;;;;;;18.98;8.30;;;26.00;99.90;;;;;;4956911;28;20422;-81
2023/07/25 06:40:25;;;;;;;20.77;8.32;;;26.00;99.90;;;;;;4939982;29;20066;-80
2023/07/25 06:42:53;;;;;;;19.15;9.15;;;26.00;99.90;;;;;;4963167;29;20414;-80
2023/07/25 06:45:22;;;;;;;18.23;8.75;;;25.90;99.90;;;;;;4944481;29;20047;-81
2023/07/25 06:47:50;;;;;;;18.35;8.35;;;25.90;99.90;;;;;;4933827;29;20060;-81
2023/07/25 06:50:18;;;;;;;15.80;8.32;;;26.10;99.90;;;;;;4943501;29;20055;-78
2023/07/25 06:52:46;;;;;;;13.85;7.80;;;26.10;99.90;;;;;;4955611;29;20103;-82
2023/07/25 06:55:13;;;;;;;14.88;7.93;;;26.20;99.90;;;;;;4940291;29;20060;-79
2023/07/25 06:57:55;;;;;;;18.50;8.50;;;26.20;99.90;;;;;;4939181;29;20056;-79
2023/07/25 07:00:23;;;;;;;13.82;6.97;;;26.20;99.90;;;;;;4941892;29;20051;-81
2023/07/25 07:02:51;;;;;;;13.77;7.80;;;26.30;99.90;;;;;;4952336;28;20079;-80
2023/07/25 07:05:18;;;;;;;18.85;8.25;;;26.20;99.90;;;;;;4933696;29;20046;-80
2023/07/25 07:07:55;;;;;;;15.88;7.95;;;26.30;99.90;;;;;;4942497;29;20059;-80
2023/07/25 07:10:23;;;;;;;16.48;7.80;;;26.30;99.90;;;;;;4939235;29;20111;-78
2023/07/25 07:12:52;;;;;;;15.32;7.38;;;26.40;99.90;;;;;;4939689;29;20051;-80
2023/07/25 07:15:24;;;;;;;12.93;7.65;;;26.50;99.90;;;;;;4943847;29;20082;-80
2023/07/25 07:17:55;;;;;;;12.63;7.75;;;26.50;99.90;;;;;;4940743;29;20052;-79
2023/07/25 07:20:23;;;;;;;20.05;8.45;;;26.30;99.90;;;;;;4951585;29;20047;-79
2023/07/25 07:22:50;;;;;;;11.95;6.85;;;26.30;99.90;;;;;;4943486;28;20103;-80
2023/07/25 07:25:17;;;;;;;16.55;8.45;;;26.50;99.90;;;;;;4935580;29;20525;-79
2023/07/25 07:27:45;;;;;;;17.17;7.22;;;26.70;99.90;;;;;;4925726;29;20411;-79
2023/07/25 07:30:12;;;;;;;14.35;7.32;;;26.60;99.90;;;;;;4927711;29;20331;-80
2023/07/25 07:32:40;;;;;;;13.88;7.53;;;26.70;99.90;;;;;;4931648;29;20127;-79
2023/07/25 07:35:07;;;;;;;13.55;7.65;;;26.80;99.90;;;;;;4947661;28;20062;-79
2023/07/25 07:37:35;;;;;;;14.70;7.93;;;26.80;99.90;;;;;;4943533;29;20046;-82
2023/07/25 07:40:03;;;;;;;13.38;7.00;;;26.80;99.90;;;;;;4942609;29;20066;-79
2023/07/25 07:42:31;;;;;;;16.38;8.52;;;26.90;99.90;;;;;;4930676;29;20138;-80
2023/07/25 07:44:59;;;;;;;16.25;7.50;;;26.90;99.90;;;;;;4926204;29;20094;-79
2023/07/25 07:47:27;;;;;;;14.02;7.30;;;26.90;99.90;;;;;;4930779;29;20051;-81
2023/07/25 07:49:55;;;;;;;12.80;6.95;;;27.00;99.90;;;;;;4953070;28;20074;-81
2023/07/25 07:52:23;;;;;;;13.48;7.35;;;27.10;99.90;;;;;;4928004;29;20143;-79
2023/07/25 07:55:11;;;;;;;14.57;7.90;;;27.10;99.90;;;;;;4941197;29;20443;-80
2023/07/25 07:57:40;;;;;;;16.40;7.78;;;27.20;99.90;;;;;;4960973;29;20114;-81
2023/07/25 08:00:09;;;;;;;18.15;7.13;;;27.20;99.90;;;;;;4944910;29;20472;-81
2023/07/25 08:02:37;;;;;;;15.98;6.93;;;27.10;99.90;;;;;;4962625;29;20051;-80
2023/07/25 08:05:04;;;;;;;13.27;7.63;;;27.20;99.90;;;;;;4961164;28;20058;-80
2023/07/25 08:07:34;;;;;;;12.67;6.77;;;27.10;99.90;;;;;;4931653;29;20044;-81
2023/07/25 08:10:01;;;;;;;16.65;7.53;;;27.10;99.90;;;;;;4959242;29;20107;-80
2023/07/25 08:12:29;;;;;;;14.90;7.13;;;27.20;99.90;;;;;;4959154;28;20499;-80
2023/07/25 08:14:56;;;;;;;13.98;7.13;;;27.30;99.90;;;;;;4961528;29;20091;-81
2023/07/25 08:17:24;;;;;;;15.05;7.22;;;27.40;99.90;;;;;;4931165;28;20051;-82
2023/07/25 08:19:51;;;;;;;22.58;7.95;;;27.40;99.90;;;;;;4963458;29;20082;-82
2023/07/25 08:22:20;;;;;;;12.13;7.18;;;27.50;99.90;;;;;;4946797;29;20056;-82
2023/07/25 08:24:53;;;;;;;14.10;7.70;;;27.50;99.90;;;;;;4956939;28;20058;-82
2023/07/25 08:27:23;;;;;;;16.75;8.55;;;27.60;99.90;;;;;;4970400;28;20056;-82
2023/07/25 08:29:51;;;;;;;16.23;9.88;;;27.50;99.90;;;;;;4972496;28;20056;-80
2023/07/25 08:32:18;;;;;;;14.25;7.30;;;27.60;99.90;;;;;;4963213;28;20048;-80
2023/07/25 08:34:50;;;;;;;14.30;7.75;;;27.60;99.90;;;;;;4963816;28;20451;-79
2023/07/25 08:37:17;;;;;;;15.57;7.15;;;27.70;99.90;;;;;;4944310;29;20090;-80
2023/07/25 08:39:46;;;;;;;13.13;7.50;;;27.80;99.90;;;;;;4961121;29;20460;-80
2023/07/25 08:42:17;;;;;;;14.02;7.50;;;27.90;99.90;;;;;;4959438;28;20070;-79
2023/07/25 08:44:52;;;;;;;17.05;7.32;;;27.90;99.90;;;;;;4969276;28;20043;-80
2023/07/25 08:47:26;;;;;;;15.25;6.88;;;27.90;99.90;;;;;;4927737;29;20059;-80
2023/07/25 08:49:57;;;;;;;14.50;7.82;;;27.90;99.90;;;;;;4954379;28;20087;-81
2023/07/25 08:52:30;;;;;;;13.98;8.35;;;28.10;99.90;;;;;;4945195;29;20055;-80
2023/07/25 08:55:00;;;;;;;11.82;7.28;;;28.20;99.90;;;;;;4959506;28;20110;-80
2023/07/25 08:57:29;;;;;;;14.85;7.53;;;28.30;99.90;;;;;;4962443;29;20058;-82
2023/07/25 08:59:58;;;;;;;16.40;8.13;;;28.20;99.90;;;;;;4926707;29;20055;-81
2023/07/25 09:02:26;;;;;;;14.02;9.32;;;28.30;99.90;;;;;;4936561;29;20090;-81
2023/07/25 09:04:55;;;;;;;14.60;7.50;;;28.30;99.90;;;;;;4947847;29;20047;-80
2023/07/25 09:07:24;;;;;;;13.70;7.07;;;28.40;99.90;;;;;;4945294;29;20070;-79
2023/07/25 09:09:51;;;;;;;15.18;7.03;;;28.30;99.90;;;;;;4962186;28;20055;-79
2023/07/25 09:12:23;;;;;;;14.55;7.00;;;28.50;99.90;;;;;;4962158;29;20055;-81
2023/07/25 09:14:52;;;;;;;14.65;6.82;;;28.60;99.90;;;;;;4925639;29;20058;-80
2023/07/25 09:17:27;;;;;;;18.27;6.67;;;28.70;99.90;;;;;;4956387;29;20157;-80
2023/07/25 09:19:59;;;;;;;10.20;5.43;;;28.90;99.90;;;;;;4961962;29;20082;-80
2023/07/25 09:22:28;;;;;;;11.53;6.33;;;29.00;99.90;;;;;;4945633;28;20077;-82
2023/07/25 09:24:57;;;;;;;12.25;7.25;;;29.20;99.90;;;;;;4945041;29;20051;-81
2023/07/25 09:27:27;;;;;;;12.57;7.05;;;29.30;99.90;;;;;;4961140;29;20047;-80
2023/07/25 09:29:57;;;;;;;14.20;6.65;;;29.40;99.90;;;;;;4924882;29;20055;-82
2023/07/25 09:32:27;;;;;;;10.05;5.97;;;29.50;99.90;;;;;;4930658;29;20059;-80
2023/07/25 09:34:59;;;;;;;13.75;6.55;;;29.50;99.90;;;;;;4960097;29;20082;-81
2023/07/25 09:37:30;;;;;;;13.25;6.05;;;29.60;99.90;;;;;;4951596;29;20047;-81
2023/07/25 09:40:00;;;;;;;14.93;6.55;;;29.70;99.90;;;;;;4927351;29;20063;-80
2023/07/25 09:42:27;;;;;;;10.32;6.07;;;29.70;99.90;;;;;;4968666;28;20059;-80
2023/07/25 09:44:55;;;;;;;11.07;5.93;;;29.80;99.90;;;;;;4939589;29;20058;-81
2023/07/25 09:47:28;;;;;;;11.20;5.70;;;29.90;99.90;;;;;;4957666;28;20522;-81
2023/07/25 09:49:56;;;;;;;11.00;6.18;;;30.10;99.90;;;;;;4936307;29;20073;-81
2023/07/25 09:52:30;;;;;;;11.02;6.00;;;30.10;99.90;;;;;;4947505;29;20427;-80
2023/07/25 09:54:57;;;;;;;12.63;6.75;;;30.30;99.90;;;;;;4949891;29;20068;-82
2023/07/25 09:57:25;;;;;;;12.10;6.75;;;30.40;99.90;;;;;;4946779;29;20075;-85
2023/07/25 09:59:58;;;;;;;14.82;6.15;;;30.70;99.90;;;;;;4959334;29;20051;-81
2023/07/25 10:02:26;;;;;;;12.15;5.85;;;30.80;99.30;;;;;;4926247;29;20095;-83
2023/07/25 10:04:59;;;;;;;11.55;5.97;;;30.80;98.70;;;;;;4935657;29;20472;-81
2023/07/25 10:07:32;;;;;;;11.68;7.18;;;30.70;98.10;;;;;;4937557;29;20241;-81
2023/07/25 10:10:00;;;;;;;11.38;5.75;;;30.80;97.90;;;;;;4928324;29;20476;-80
2023/07/25 10:12:32;;;;;;;10.02;5.07;;;31.00;97.90;;;;;;4940379;29;20072;-79
2023/07/25 10:14:59;;;;;;;10.80;5.40;;;31.00;97.20;;;;;;4924229;29;20491;-81
2023/07/25 10:17:29;;;;;;;12.88;5.00;;;31.20;97.10;;;;;;4936980;29;20084;-85
2023/07/25 10:20:05;;;;;;;10.85;6.18;;;31.30;96.90;;;;;;4935155;29;20108;-81
2023/07/25 10:22:38;;;;;;;11.82;5.47;;;31.50;96.90;;;;;;4936251;29;20651;-81
2023/07/25 10:25:16;;;;;;;11.82;5.15;;;31.70;97.10;;;;;;4939874;29;20076;-81
2023/07/25 10:27:46;;;;;;;12.00;5.32;;;31.80;96.00;;;;;;4924392;29;20056;-81
2023/07/25 10:30:25;;;;;;;12.80;5.57;;;31.70;94.80;;;;;;4922821;29;20142;-80
2023/07/25 10:32:59;;;;;;;14.63;6.53;;;31.70;94.50;;;;;;4953594;29;20459;-80
2023/07/25 10:35:49;;;;;;;10.90;5.80;;;31.70;94.10;;;;;;4941008;29;20071;-81
2023/07/25 10:38:39;;;;;;;13.07;5.93;;;31.70;93.60;;;;;;4943511;29;20051;-79
2023/07/25 10:41:16;;;;;;;13.45;5.80;;;31.90;93.80;;;;;;4942560;28;20051;-80
2023/07/25 10:43:48;;;;;;;11.10;4.97;;;32.10;93.20;;;;;;4941418;29;20055;-80
2023/07/25 10:46:26;;;;;;;11.20;4.93;;;32.30;93.00;;;;;;4923928;29;20090;-79
2023/07/25 10:49:14;;;;;;;12.73;5.57;;;32.50;92.90;;;;;;4944757;29;20134;-79
2023/07/25 10:51:49;;;;;;;11.77;5.22;;;32.50;92.00;;;;;;4932738;28;20132;-81
2023/07/25 10:54:18;;;;;;;13.13;6.22;;;32.50;91.80;;;;;;4981260;28;20090;-80
2023/07/25 10:57:13;;;;;;;11.07;5.65;;;32.40;91.80;;;;;;4948902;29;20380;-82
2023/07/25 11:00:00;;;;;;;13.77;5.68;;;32.60;91.90;;;;;;4966800;28;20479;-80
2023/07/25 11:02:43;;;;;;;12.40;5.63;;;32.80;91.60;;;;;;4961087;28;20055;-80
2023/07/25 11:05:14;;;;;;;15.85;5.40;;;32.90;91.40;;;;;;4930584;29;20047;-79
2023/07/25 11:07:53;;;;;;;12.32;6.15;;;33.00;90.80;;;;;;4943340;29;20081;-80
2023/07/25 11:10:28;;;;;;;12.90;6.18;;;33.20;90.90;;;;;;4962318;29;20051;-80
2023/07/25 11:13:01;;;;;;;15.05;5.15;;;33.30;90.70;;;;;;4962167;28;20051;-80
2023/07/25 11:15:30;;;;;;;13.05;5.90;;;33.40;90.30;;;;;;4942284;29;20499;-79
2023/07/25 11:18:13;;;;;;;13.90;5.20;;;33.40;89.00;;;;;;4929179;29;20059;-79
2023/07/25 11:20:43;;;;;;;10.23;4.80;;;33.50;89.20;;;;;;4944784;29;20172;-79
2023/07/25 11:23:11;;;;;;;11.32;5.30;;;33.50;88.00;;;;;;4946101;29;20079;-80
2023/07/25 11:25:38;;;;;;;10.68;6.00;;;33.30;87.40;;;;;;4973208;28;20195;-80
2023/07/25 11:28:08;;;;;;;13.95;5.60;;;33.30;87.50;;;;;;4931063;29;20451;-79
2023/07/25 11:30:42;;;;;;;12.55;5.75;;;33.30;88.40;;;;;;4967883;29;20091;-79
2023/07/25 11:33:14;;;;;;;14.82;6.07;;;33.20;87.90;;;;;;4962819;28;20055;-80
2023/07/25 11:35:43;;;;;;;13.98;5.45;;;33.20;87.70;;;;;;4946559;29;20118;-79
2023/07/25 11:38:12;;;;;;;11.27;5.32;;;33.20;87.40;;;;;;4965573;29;20086;-79
2023/07/25 11:40:41;;;;;;;12.38;5.03;;;33.30;86.80;;;;;;4944533;28;20517;-80
2023/07/25 11:43:12;;;;;;;11.02;4.75;;;33.30;85.20;;;;;;4961530;28;20062;-78
2023/07/25 11:45:39;;;;;;;11.20;5.25;;;33.50;84.80;;;;;;4960766;28;20070;-79
2023/07/25 11:48:08;;;;;;;13.25;5.78;;;33.80;85.10;;;;;;4960709;29;20050;-82
2023/07/25 11:50:36;;;;;;;14.77;5.80;;;34.10;85.80;;;;;;4965977;28;20114;-82
2023/07/25 11:53:04;;;;;;;10.73;4.97;;;34.20;84.10;;;;;;4976125;28;20490;-80
2023/07/25 11:55:34;;;;;;;11.82;5.07;;;34.20;82.60;;;;;;4948979;29;20051;-80
2023/07/25 11:58:04;;;;;;;11.70;5.03;;;34.20;82.70;;;;;;4946746;29;20122;-80
2023/07/25 12:00:41;;;;;;;14.23;4.90;;;34.10;83.20;;;;;;4963254;29;20118;-79
2023/07/25 12:03:20;;;;;;;12.93;4.65;;;34.10;82.50;;;;;;4960953;28;20055;-78
2023/07/25 12:05:59;;;;;;;12.88;5.88;;;34.20;82.90;;;;;;4950457;29;20055;-82
2023/07/25 12:09:01;;;;;;;12.48;5.63;;;34.20;82.20;;;;;;4944160;29;20102;-80
2023/07/25 12:11:53;;;;;;;14.68;5.18;;;34.20;81.90;;;;;;4973651;29;20058;-79
2023/07/25 12:14:22;;;;;;;13.27;5.55;;;34.30;81.70;;;;;;4963616;28;20213;-80
2023/07/25 12:16:50;;;;;;;18.30;5.65;;;34.40;81.50;;;;;;4944000;29;20058;-81
2023/07/25 12:19:20;;;;;;;14.77;5.93;;;34.80;81.50;;;;;;4962732;28;20410;-80
2023/07/25 12:21:56;;;;;;;;;;;35.00;81.00;;;;;;4944241;29;20487;-81
2023/07/25 12:24:24;;;;;;;13.68;5.00;;;35.00;79.70;;;;;;4960471;28;20017;-78
2023/07/25 12:26:54;;;;;;;12.15;4.70;;;35.20;79.80;;;;;;4947439;29;20106;-79
2023/07/25 12:29:24;;;;;;;14.43;4.65;;;35.20;80.00;;;;;;4960571;29;20050;-79
2023/07/25 12:31:52;;;;;;;11.98;4.88;;;35.20;79.00;;;;;;4965363;28;20469;-80
2023/07/25 12:34:20;;;;;;;14.20;6.15;;;35.30;79.70;;;;;;4954060;29;20055;-79
2023/07/25 12:36:49;;;;;;;12.23;5.22;;;35.40;81.90;;;;;;4944216;29;20051;-79
2023/07/25 12:39:24;;;;;;;12.25;5.10;;;35.40;78.70;;;;;;4963436;29;20055;-79
2023/07/25 12:41:51;;;;;;;11.00;6.03;;;35.50;79.00;;;;;;4962071;28;20063;-79
2023/07/25 12:44:19;;;;;;;11.45;6.15;;;35.60;78.90;;;;;;4929145;29;20459;-79
2023/07/25 12:46:49;;;;;;;;;;;35.60;78.00;;;;;;4957352;28;20059;-81